createdAt,value
2022-12-26T00:01:42.587Z,2.70
2022-12-26T00:04:48.890Z,2.43
2022-12-26T00:06:38.392Z,2.47
2022-12-26T00:09:06.735Z,2.40
2022-12-26T00:11:34.278Z,2.93
2022-12-26T00:14:07.656Z,2.33
2022-12-26T00:16:35.233Z,3.00
2022-12-26T00:19:02.745Z,2.30
2022-12-26T00:21:31.018Z,2.30
2022-12-26T00:23:59.334Z,3.03
2022-12-26T00:26:26.912Z,2.47
2022-12-26T00:28:55.160Z,2.40
2022-12-26T00:31:22.730Z,2.60
2022-12-26T00:33:50.245Z,2.57
2022-12-26T00:36:17.768Z,2.80
2022-12-26T00:38:45.329Z,2.67
2022-12-26T00:41:12.864Z,2.50
2022-12-26T00:43:40.435Z,2.13
2022-12-26T00:46:07.931Z,2.40
2022-12-26T00:48:35.450Z,2.30
2022-12-26T00:51:02.985Z,2.40
2022-12-26T00:53:30.520Z,2.37
2022-12-26T00:55:58.051Z,2.87
2022-12-26T00:58:25.600Z,2.53
2022-12-26T01:00:53.177Z,2.47
2022-12-26T01:03:20.810Z,2.50
2022-12-26T01:05:51.174Z,2.40
2022-12-26T01:08:21.031Z,2.27
2022-12-26T01:10:46.287Z,2.63
2022-12-26T01:13:13.876Z,2.50
2022-12-26T01:15:41.680Z,2.33
2022-12-26T01:18:09.197Z,2.57
2022-12-26T01:20:36.750Z,2.53
2022-12-26T01:23:04.326Z,2.67
2022-12-26T01:25:31.844Z,2.37
2022-12-26T01:27:59.378Z,2.67
2022-12-26T01:30:27.255Z,2.50
2022-12-26T01:32:54.744Z,2.30
2022-12-26T01:35:22.535Z,2.92
2022-12-26T01:37:50.087Z,2.73
2022-12-26T01:40:17.622Z,2.30
2022-12-26T01:42:45.178Z,2.60
2022-12-26T01:45:19.545Z,2.40
2022-12-26T01:47:47.062Z,2.40
2022-12-26T01:50:26.876Z,3.05
2022-12-26T01:52:54.409Z,2.80
2022-12-26T01:55:22.695Z,2.50
2022-12-26T01:57:56.091Z,2.67
2022-12-26T02:00:23.607Z,3.10
2022-12-26T02:02:57.454Z,2.47
2022-12-26T02:05:34.059Z,2.97
2022-12-26T02:08:10.440Z,2.37
2022-12-26T02:10:55.815Z,2.40
2022-12-26T02:13:23.321Z,2.50
2022-12-26T02:15:50.856Z,2.43
2022-12-26T02:18:18.419Z,2.27
2022-12-26T02:20:48.439Z,2.60
2022-12-26T02:23:15.965Z,3.07
2022-12-26T02:26:04.663Z,3.00
2022-12-26T02:28:43.833Z,2.50
2022-12-26T02:31:20.784Z,2.78
2022-12-26T02:33:51.151Z,3.03
2022-12-26T02:36:33.383Z,2.80
2022-12-26T02:39:00.921Z,2.53
2022-12-26T02:41:46.911Z,2.57
2022-12-26T02:44:32.622Z,2.37
2022-12-26T02:47:11.942Z,2.30
2022-12-26T02:50:19.272Z,2.83
2022-12-26T02:53:08.213Z,2.30
2022-12-26T02:55:38.337Z,2.40
2022-12-26T02:58:24.043Z,2.10
2022-12-26T03:01:09.904Z,2.53
2022-12-26T03:03:55.707Z,2.50
2022-12-26T03:06:41.502Z,2.20
2022-12-26T03:09:31.142Z,2.10
2022-12-26T03:12:19.216Z,2.60
2022-12-26T03:14:49.459Z,2.47
2022-12-26T03:17:22.256Z,3.07
2022-12-26T03:20:23.464Z,2.43
2022-12-26T03:22:53.984Z,2.13
2022-12-26T03:25:54.375Z,2.20
2022-12-26T03:28:21.909Z,2.70
2022-12-26T03:30:49.514Z,2.13
2022-12-26T03:33:19.684Z,2.85
2022-12-26T03:35:47.248Z,2.83
2022-12-26T03:38:14.745Z,2.70
2022-12-26T03:41:12.260Z,2.33
2022-12-26T03:44:12.798Z,2.60
2022-12-26T03:47:10.088Z,2.23
2022-12-26T03:49:55.780Z,2.17
2022-12-26T03:52:56.032Z,2.33
2022-12-26T03:55:56.315Z,2.10
2022-12-26T03:58:50.476Z,2.30
2022-12-26T04:01:36.312Z,2.17
2022-12-26T04:04:22.112Z,2.50
2022-12-26T04:07:10.147Z,2.60
2022-12-26T04:10:10.379Z,1.80
2022-12-26T04:12:55.934Z,2.73
2022-12-26T04:15:47.108Z,1.80
2022-12-26T04:18:35.390Z,2.00
2022-12-26T04:21:40.008Z,2.03
2022-12-26T04:24:28.711Z,1.83
2022-12-26T04:27:14.356Z,2.43
2022-12-26T04:29:59.879Z,2.00
2022-12-26T04:32:54.266Z,2.10
2022-12-26T04:35:39.811Z,2.33
2022-12-26T04:38:25.429Z,2.50
2022-12-26T04:41:10.992Z,2.47
2022-12-26T04:43:56.907Z,2.10
2022-12-26T04:46:24.499Z,2.20
2022-12-26T04:49:10.286Z,2.30
2022-12-26T04:51:37.799Z,2.00
2022-12-26T04:54:05.340Z,2.00
2022-12-26T04:56:32.903Z,2.23
2022-12-26T04:59:00.442Z,2.13
2022-12-26T05:01:46.879Z,2.17
2022-12-26T05:04:32.004Z,2.78
2022-12-26T05:07:17.925Z,2.30
2022-12-26T05:09:45.471Z,2.10
2022-12-26T05:12:13.753Z,2.30
2022-12-26T05:14:42.086Z,2.13
2022-12-26T05:17:27.929Z,2.17
2022-12-26T05:20:14.381Z,1.97
2022-12-26T05:22:59.924Z,1.90
2022-12-26T05:25:45.598Z,1.77
2022-12-26T05:28:31.231Z,2.00
2022-12-26T05:30:58.805Z,1.90
2022-12-26T05:33:44.414Z,1.90
2022-12-26T05:36:11.985Z,1.60
2022-12-26T05:38:40.304Z,2.07
2022-12-26T05:41:07.812Z,1.40
2022-12-26T05:43:36.400Z,1.50
2022-12-26T05:46:05.240Z,1.60
2022-12-26T05:48:32.662Z,1.30
2022-12-26T05:51:00.349Z,1.70
2022-12-26T05:53:27.796Z,1.20
2022-12-26T05:55:55.360Z,1.33
2022-12-26T05:58:23.638Z,1.50
2022-12-26T06:00:51.195Z,1.30
2022-12-26T06:03:18.888Z,1.37
2022-12-26T06:05:46.394Z,1.20
2022-12-26T06:08:13.961Z,1.40
2022-12-26T06:10:41.489Z,1.30
2022-12-26T06:13:09.276Z,1.47
2022-12-26T06:15:36.788Z,1.57
2022-12-26T06:18:04.401Z,1.40
2022-12-26T06:20:32.727Z,2.00
2022-12-26T06:23:00.332Z,1.87
2022-12-26T06:25:27.846Z,1.60
2022-12-26T06:27:55.454Z,2.20
2022-12-26T06:30:22.988Z,1.83
2022-12-26T06:32:50.532Z,2.00
2022-12-26T06:35:18.154Z,1.50
2022-12-26T06:37:46.433Z,2.10
2022-12-26T06:40:13.955Z,1.90
2022-12-26T06:42:41.518Z,2.03
2022-12-26T06:45:09.125Z,1.53
2022-12-26T06:47:36.655Z,1.60
2022-12-26T06:50:04.279Z,1.77
2022-12-26T06:52:31.793Z,1.60
2022-12-26T06:54:59.309Z,2.17
2022-12-26T06:57:26.886Z,2.33
2022-12-26T06:59:54.404Z,2.00
2022-12-26T07:02:22.000Z,1.80
2022-12-26T07:04:49.537Z,1.70
2022-12-26T07:07:17.067Z,1.50
2022-12-26T07:09:44.602Z,1.50
2022-12-26T07:12:12.953Z,1.83
2022-12-26T07:14:40.476Z,1.63
2022-12-26T07:17:08.051Z,2.10
2022-12-26T07:19:35.606Z,1.80
2022-12-26T07:22:03.185Z,1.63
2022-12-26T07:24:30.714Z,1.97
2022-12-26T07:26:58.964Z,2.30
2022-12-26T07:29:26.456Z,1.53
2022-12-26T07:31:54.032Z,1.43
2022-12-26T07:34:24.065Z,1.17
2022-12-26T07:36:49.066Z,1.20
2022-12-26T07:39:16.608Z,1.20
2022-12-26T07:41:58.933Z,1.30
2022-12-26T07:44:29.459Z,1.20
2022-12-26T07:46:56.973Z,1.60
2022-12-26T07:49:25.047Z,1.30
2022-12-26T07:51:52.562Z,1.00
2022-12-26T07:54:20.096Z,1.20
2022-12-26T07:56:47.672Z,1.07
2022-12-26T07:59:15.202Z,1.10
2022-12-26T08:01:42.942Z,1.00
2022-12-26T08:04:11.060Z,1.17
2022-12-26T08:06:38.599Z,1.00
2022-12-26T08:09:06.153Z,1.23
2022-12-26T08:11:33.741Z,0.97
2022-12-26T08:14:01.251Z,1.10
2022-12-26T08:16:28.860Z,1.23
2022-12-26T08:18:57.138Z,1.23
2022-12-26T08:21:24.704Z,1.17
2022-12-26T08:23:52.226Z,1.08
2022-12-26T08:26:19.776Z,1.13
2022-12-26T08:28:47.310Z,0.97
2022-12-26T08:31:14.861Z,0.80
2022-12-26T08:33:42.450Z,0.90
2022-12-26T08:36:10.761Z,1.20
2022-12-26T08:38:38.262Z,0.97
2022-12-26T08:41:05.821Z,0.77
2022-12-26T08:46:07.154Z,0.93
2022-12-26T08:48:34.700Z,1.27
2022-12-26T08:51:07.656Z,0.90
2022-12-26T08:53:35.202Z,1.07
2022-12-26T08:56:02.776Z,0.97
2022-12-26T08:58:30.313Z,1.53
2022-12-26T09:00:57.852Z,1.00
2022-12-26T09:03:25.437Z,1.17
2022-12-26T09:05:52.929Z,1.30
2022-12-26T09:08:20.458Z,1.20
2022-12-26T09:10:49.671Z,1.00
2022-12-26T09:13:17.212Z,0.80
2022-12-26T09:15:44.717Z,0.97
2022-12-26T09:18:12.318Z,1.23
2022-12-26T09:20:39.803Z,0.70
2022-12-26T09:23:08.093Z,0.80
2022-12-26T09:25:35.705Z,1.00
2022-12-26T09:28:03.210Z,1.10
2022-12-26T09:30:31.600Z,0.80
2022-12-26T09:32:59.739Z,0.80
2022-12-26T09:35:28.461Z,1.40
2022-12-26T09:37:55.987Z,1.10
2022-12-26T09:40:23.604Z,0.87
2022-12-26T09:43:02.789Z,1.30
2022-12-26T09:45:42.640Z,1.10
2022-12-26T09:48:10.934Z,1.10
2022-12-26T09:50:42.901Z,1.00
2022-12-26T09:53:08.970Z,1.37
2022-12-26T09:55:45.316Z,1.67
2022-12-26T09:58:31.169Z,0.90
2022-12-26T10:01:05.191Z,1.30
2022-12-26T10:03:32.684Z,1.20
2022-12-26T10:06:06.061Z,2.27
2022-12-26T10:08:33.587Z,1.90
2022-12-26T10:11:03.775Z,1.40
2022-12-26T10:13:40.136Z,2.00
2022-12-26T10:16:19.543Z,1.67
2022-12-26T10:18:50.243Z,0.70
2022-12-26T10:21:29.955Z,1.53
2022-12-26T10:24:03.505Z,2.10
2022-12-26T10:26:31.023Z,1.97
2022-12-26T10:29:10.274Z,1.60
2022-12-26T10:31:40.203Z,1.50
2022-12-26T10:34:20.599Z,1.13
2022-12-26T10:37:03.169Z,1.00
2022-12-26T10:39:40.014Z,1.13
2022-12-26T10:42:21.964Z,1.70
2022-12-26T10:44:49.532Z,2.27
2022-12-26T10:47:28.806Z,1.80
2022-12-26T10:49:56.380Z,2.13
2022-12-26T10:52:23.907Z,1.00
2022-12-26T10:54:51.432Z,1.10
2022-12-26T10:57:19.023Z,1.20
2022-12-26T10:59:49.501Z,2.23
2022-12-26T11:02:17.054Z,1.30
2022-12-26T11:07:31.325Z,1.13
2022-12-26T11:09:58.865Z,1.13
2022-12-26T11:12:38.179Z,1.20
2022-12-26T11:15:17.726Z,1.20
2022-12-26T11:17:45.289Z,1.30
2022-12-26T11:20:12.827Z,0.73
2022-12-26T11:22:40.364Z,1.07
2022-12-26T11:25:10.610Z,0.87
2022-12-26T11:27:38.144Z,1.10
2022-12-26T11:30:15.434Z,1.10
2022-12-26T11:32:43.710Z,1.07
2022-12-26T11:35:17.735Z,0.93
2022-12-26T11:37:46.173Z,1.00
2022-12-26T11:40:19.107Z,1.30
2022-12-26T11:42:50.382Z,1.47
2022-12-26T11:45:17.883Z,1.13
2022-12-26T11:47:45.413Z,1.23
2022-12-26T11:50:12.973Z,1.70
2022-12-26T11:52:46.426Z,1.30
2022-12-26T11:55:23.336Z,1.63
2022-12-26T11:58:08.466Z,1.50
2022-12-26T12:00:39.015Z,1.00
2022-12-26T12:03:22.387Z,1.20
2022-12-26T12:05:52.418Z,1.40
2022-12-26T12:08:34.739Z,1.30
2022-12-26T12:11:05.323Z,1.30
2022-12-26T12:13:38.974Z,1.53
2022-12-26T12:16:24.545Z,0.73
2022-12-26T12:19:01.169Z,2.00
2022-12-26T12:21:40.683Z,1.13
2022-12-26T12:24:10.702Z,1.60
2022-12-26T12:26:54.888Z,1.10
2022-12-26T12:29:32.882Z,1.87
2022-12-26T12:32:09.645Z,1.20
2022-12-26T12:34:49.557Z,1.40
2022-12-26T12:37:42.355Z,0.80
2022-12-26T12:40:18.565Z,1.30
2022-12-26T12:43:00.836Z,1.30
2022-12-26T12:45:33.837Z,0.60
2022-12-26T12:48:25.312Z,0.70
2022-12-26T12:50:58.393Z,0.90
2022-12-26T12:53:47.075Z,0.63
2022-12-26T12:56:45.049Z,1.10
2022-12-26T12:59:34.956Z,0.83
2022-12-26T13:02:08.767Z,0.70
2022-12-26T13:04:34.030Z,0.90
2022-12-26T13:07:01.587Z,0.53
2022-12-26T13:09:29.137Z,0.60
2022-12-26T13:11:56.673Z,0.87
2022-12-26T13:14:24.316Z,0.43
2022-12-26T13:16:54.504Z,0.40
2022-12-26T13:19:33.679Z,0.70
2022-12-26T13:22:01.210Z,0.80
2022-12-26T13:24:28.729Z,1.10
2022-12-26T13:27:14.400Z,0.63
2022-12-26T13:29:42.109Z,0.70
2022-12-26T13:32:27.878Z,0.80
2022-12-26T13:34:55.392Z,1.27
2022-12-26T13:37:41.394Z,0.60
2022-12-26T13:40:11.870Z,1.13
2022-12-26T13:42:58.616Z,2.50
2022-12-26T13:45:38.172Z,1.17
2022-12-26T13:48:17.490Z,1.37
2022-12-26T13:50:54.914Z,0.90
2022-12-26T13:53:27.301Z,1.90
2022-12-26T13:55:57.816Z,1.40
2022-12-26T13:58:46.710Z,1.20
2022-12-26T14:01:35.795Z,1.07
2022-12-26T14:04:09.408Z,1.40
2022-12-26T14:06:55.352Z,1.20
2022-12-26T14:09:59.523Z,1.07
2022-12-26T14:12:51.035Z,1.27
2022-12-26T14:15:19.422Z,2.00
2022-12-26T14:18:08.008Z,1.67
2022-12-26T14:20:48.745Z,3.70
2022-12-26T14:23:19.121Z,1.07
2022-12-26T14:25:59.475Z,0.80
2022-12-26T14:28:50.162Z,0.70
2022-12-26T14:31:20.252Z,1.00
2022-12-26T14:33:53.624Z,0.90
2022-12-26T14:36:36.237Z,1.20
2022-12-26T14:39:21.841Z,0.80
2022-12-26T14:42:25.813Z,0.90
2022-12-26T14:44:53.335Z,1.13
2022-12-26T14:47:42.467Z,1.70
2022-12-26T14:50:34.481Z,0.90
2022-12-26T14:53:20.624Z,0.80
2022-12-26T14:55:50.551Z,0.90
2022-12-26T14:58:55.664Z,0.50
2022-12-26T15:01:23.258Z,0.40
2022-12-26T15:04:00.363Z,1.23
2022-12-26T15:06:51.994Z,0.90
2022-12-26T15:09:25.571Z,0.70
2022-12-26T15:12:01.904Z,1.13
2022-12-26T15:14:41.034Z,0.87
2022-12-26T15:17:27.400Z,0.87
2022-12-26T15:20:22.469Z,1.40
2022-12-26T15:23:13.991Z,1.10
2022-12-26T15:25:43.975Z,0.50
2022-12-26T15:28:42.013Z,0.33
2022-12-26T15:31:39.717Z,0.70
2022-12-26T15:34:34.790Z,0.43
2022-12-26T15:37:20.122Z,0.30
2022-12-26T15:39:48.396Z,0.40
2022-12-26T15:42:18.660Z,0.20
2022-12-26T15:45:10.555Z,0.37
2022-12-26T15:47:59.131Z,0.40
2022-12-26T15:50:31.450Z,0.37
2022-12-26T15:53:10.490Z,0.40
2022-12-26T15:56:05.561Z,0.40
2022-12-26T15:58:42.485Z,0.30
2022-12-26T16:01:10.390Z,0.50
2022-12-26T16:03:56.191Z,0.83
2022-12-26T16:06:39.196Z,1.13
2022-12-26T16:09:27.560Z,1.20
2022-12-26T16:11:55.110Z,1.08
2022-12-26T16:14:25.638Z,1.40
2022-12-26T16:16:53.197Z,0.90
2022-12-26T16:19:20.756Z,1.00
2022-12-26T16:22:06.555Z,1.70
2022-12-26T16:24:34.731Z,1.50
2022-12-26T16:27:02.186Z,1.03
2022-12-26T16:29:29.707Z,1.80
2022-12-26T16:32:03.206Z,2.87
2022-12-26T16:34:30.717Z,2.10
2022-12-26T16:36:58.994Z,1.80
2022-12-26T16:39:26.595Z,1.40
2022-12-26T16:42:00.128Z,2.27
2022-12-26T16:44:33.648Z,1.87
2022-12-26T16:47:04.151Z,1.43
2022-12-26T16:49:31.586Z,2.77
2022-12-26T16:52:00.280Z,2.73
2022-12-26T16:54:27.796Z,2.50
2022-12-26T16:57:09.524Z,2.80
2022-12-26T16:59:37.037Z,3.20
2022-12-26T17:02:04.651Z,2.57
2022-12-26T17:04:32.103Z,3.77
2022-12-26T17:07:08.602Z,3.30
2022-12-26T17:09:39.990Z,3.77
2022-12-26T17:12:08.273Z,5.00
2022-12-26T17:14:38.788Z,3.83
2022-12-26T17:17:07.136Z,5.67
2022-12-26T17:19:34.638Z,2.90
2022-12-26T17:22:20.221Z,2.30
2022-12-26T17:24:51.214Z,1.90
2022-12-26T17:27:24.911Z,1.77
2022-12-26T17:29:58.236Z,1.30
2022-12-26T17:32:38.531Z,0.90
2022-12-26T17:35:06.083Z,1.42
2022-12-26T17:37:33.580Z,0.93
2022-12-26T17:40:03.303Z,1.03
2022-12-26T17:42:28.901Z,1.17
2022-12-26T17:44:56.412Z,1.20
2022-12-26T17:47:25.094Z,0.90
2022-12-26T17:49:52.551Z,0.67
2022-12-26T17:52:23.595Z,0.90
2022-12-26T17:54:51.170Z,1.10
2022-12-26T17:57:22.860Z,1.20
2022-12-26T17:59:50.286Z,1.20
2022-12-26T18:02:17.942Z,1.30
2022-12-26T18:04:46.148Z,0.90
2022-12-26T18:07:19.230Z,1.77
2022-12-26T18:09:47.357Z,1.60
2022-12-26T18:12:14.871Z,1.47
2022-12-26T18:14:42.385Z,1.97
2022-12-26T18:17:09.945Z,2.87
2022-12-26T18:19:38.232Z,0.80
2022-12-26T18:22:06.514Z,0.93
2022-12-26T18:24:34.850Z,2.80
2022-12-26T18:27:02.397Z,3.40
2022-12-26T18:29:29.914Z,4.93
2022-12-26T18:31:57.556Z,5.03
2022-12-26T18:34:24.998Z,5.10
2022-12-26T18:36:52.604Z,3.90
2022-12-26T18:39:20.194Z,2.67
2022-12-26T18:41:47.789Z,3.75
2022-12-26T18:44:15.317Z,3.30
2022-12-26T18:46:42.945Z,3.92
2022-12-26T18:49:10.468Z,3.27
2022-12-26T18:51:37.991Z,9.00
2022-12-26T18:54:05.570Z,6.50
2022-12-26T18:56:33.092Z,12.67
2022-12-26T18:59:01.048Z,10.30
2022-12-26T19:01:29.119Z,4.20
2022-12-26T19:03:56.565Z,3.83
2022-12-26T19:06:24.068Z,3.10
2022-12-26T19:08:51.657Z,4.20
2022-12-26T19:11:19.173Z,4.27
2022-12-26T19:13:46.697Z,4.33
2022-12-26T19:16:14.311Z,2.20
2022-12-26T19:18:41.756Z,1.47
2022-12-26T19:21:11.944Z,2.15
2022-12-26T19:23:40.275Z,0.90
2022-12-26T19:26:10.464Z,1.10
2022-12-26T19:28:38.056Z,1.10
2022-12-26T19:31:11.702Z,1.20
2022-12-26T19:33:39.161Z,0.80
2022-12-26T19:36:06.687Z,1.03
2022-12-26T19:38:34.256Z,1.23
2022-12-26T19:41:04.567Z,1.63
2022-12-26T19:43:32.117Z,2.80
2022-12-26T19:46:07.086Z,1.63
2022-12-26T19:48:35.194Z,1.13
2022-12-26T19:51:02.767Z,1.20
2022-12-26T19:53:30.341Z,1.60
2022-12-26T19:55:57.876Z,1.73
2022-12-26T19:58:27.912Z,1.30
2022-12-26T20:00:56.054Z,2.47
2022-12-26T20:03:23.494Z,2.30
2022-12-26T20:05:51.023Z,1.90
2022-12-26T20:08:18.578Z,1.65
2022-12-26T20:10:46.095Z,1.73
2022-12-26T20:13:14.413Z,1.40
2022-12-26T20:15:42.369Z,1.70
2022-12-26T20:18:14.785Z,1.97
2022-12-26T20:20:37.428Z,1.53
2022-12-26T20:23:05.009Z,1.23
2022-12-26T20:25:33.329Z,2.37
2022-12-26T20:28:00.835Z,0.90
2022-12-26T20:30:28.412Z,1.40
2022-12-26T20:32:55.925Z,1.87
2022-12-26T20:35:23.483Z,2.03
2022-12-26T20:37:51.082Z,2.80
2022-12-26T20:40:18.615Z,1.40
2022-12-26T20:42:46.124Z,1.03
2022-12-26T20:45:14.482Z,1.87
2022-12-26T20:47:41.973Z,1.67
2022-12-26T20:50:09.482Z,2.63
2022-12-26T20:52:37.033Z,3.50
2022-12-26T20:55:04.597Z,3.90
2022-12-26T20:57:32.086Z,2.70
2022-12-26T21:00:00.716Z,3.20
2022-12-26T21:02:28.434Z,3.20
2022-12-26T21:04:55.777Z,3.27
2022-12-26T21:07:23.347Z,3.17
2022-12-26T21:09:50.851Z,2.77
2022-12-26T21:12:18.362Z,3.13
2022-12-26T21:14:46.075Z,4.07
2022-12-26T21:17:13.604Z,3.13
2022-12-26T21:19:41.885Z,3.40
2022-12-26T21:22:10.222Z,3.17
2022-12-26T21:24:37.760Z,3.70
2022-12-26T21:27:05.278Z,3.37
2022-12-26T21:29:34.524Z,4.07
2022-12-26T21:32:02.032Z,3.07
2022-12-26T21:34:29.552Z,2.83
2022-12-26T21:37:16.113Z,3.23
2022-12-26T21:39:43.625Z,2.87
2022-12-26T21:42:11.233Z,3.15
2022-12-26T21:44:39.221Z,2.27
2022-12-26T21:47:06.730Z,2.93
2022-12-26T21:49:34.259Z,2.60
2022-12-26T21:52:01.842Z,1.83
2022-12-26T21:54:49.406Z,2.45
2022-12-26T21:57:16.107Z,2.23
2022-12-26T21:59:59.493Z,1.97
2022-12-26T22:02:47.286Z,2.20
2022-12-26T22:05:14.626Z,2.30
2022-12-26T22:07:42.171Z,2.27
2022-12-26T22:10:09.744Z,2.27
2022-12-26T22:12:55.278Z,2.27
2022-12-26T22:15:40.777Z,2.58
2022-12-26T22:18:08.259Z,1.97
2022-12-26T22:20:35.786Z,1.80
2022-12-26T22:23:03.345Z,2.30
2022-12-26T22:25:30.897Z,1.93
2022-12-26T22:27:58.434Z,1.90
2022-12-26T22:30:26.009Z,2.33
2022-12-26T22:32:54.310Z,2.50
2022-12-26T22:35:21.842Z,1.77
2022-12-26T22:37:50.245Z,2.00
2022-12-26T22:40:17.761Z,1.80
2022-12-26T22:42:45.303Z,1.73
2022-12-26T22:45:12.873Z,1.80
2022-12-26T22:47:40.396Z,1.80
2022-12-26T22:50:07.980Z,2.50
2022-12-26T22:52:35.543Z,2.03
2022-12-26T22:55:03.178Z,1.90
2022-12-26T22:57:30.700Z,2.10
2022-12-26T23:00:08.850Z,2.33
2022-12-26T23:02:26.745Z,1.90
2022-12-26T23:04:54.082Z,2.03
2022-12-26T23:07:21.661Z,1.80
2022-12-26T23:09:49.204Z,2.43
2022-12-26T23:12:35.267Z,2.10
2022-12-26T23:15:02.803Z,1.87
2022-12-26T23:17:48.582Z,2.73
2022-12-26T23:20:34.159Z,2.13
2022-12-26T23:23:01.766Z,2.13
2022-12-26T23:25:29.248Z,2.50
2022-12-26T23:28:14.617Z,2.50
2022-12-26T23:30:42.145Z,2.47
2022-12-26T23:33:09.661Z,2.30
2022-12-26T23:35:37.727Z,1.97
2022-12-26T23:38:05.256Z,2.33
2022-12-26T23:40:32.791Z,2.13
2022-12-26T23:43:00.609Z,2.60
2022-12-26T23:45:28.144Z,2.03
2022-12-26T23:47:55.643Z,2.10
2022-12-26T23:50:23.790Z,2.27
2022-12-26T23:52:51.310Z,1.97
2022-12-26T23:55:18.817Z,1.90
2022-12-26T23:57:47.433Z,1.97
